Bogue, Kansas
Current Conditions -  °F | °C
As of 1:53 AM on Monday 24 Nov 2014 (Local Time) from KHLC Reporting Station
Clear Clear  
Wind Chill: 25°   Ceiling: Unl
Heat Index: 35°   Visibility: 10mi
Dew Point: 16°   Wind: 17mph
Humidity: 46%   Direction: 290°WNW
Pressure: 29.74"   Gusts: 24mph
Location:  39.36°N, 99.69°W
Report Text: KHLC 240753Z AUTO 29015G21KT 10SM CLR 02/M09 A2974 RMK AO2 SLP076 T00171089
Loading
Personal Weather Stations






























Interactive Weather Map New forecast layout! Learn more

10-Day Weather Forecast

Advertisements
Track Severe Weather on mobile